Time;durP1;ratioP1;P1;durP2;ratioP2;P2;SDS_P1;SDS_P2;PMS_P1;PMS_P2;Temp;Humidity;BMP_temperature;BMP_pressure;BME280_temperature;BME280_humidity;BME280_pressure;Samples;Min_cycle;Max_cycle;Signal;HPM_P1;HPM_P2
2023/04/24 00:01:50;;;;;;;1.40;1.40;;;18.70;66.30;;;;;;5010728;28;43479;-77
2023/04/24 00:04:18;;;;;;;1.33;1.33;;;18.80;65.90;;;;;;5031051;28;43457;-77
2023/04/24 00:06:49;;;;;;;1.20;1.20;;;18.90;65.60;;;;;;5028133;28;44055;-78
2023/04/24 00:09:18;;;;;;;1.10;1.10;;;18.90;65.40;;;;;;5025177;28;43393;-78
2023/04/24 00:11:46;;;;;;;1.10;1.10;;;18.90;65.50;;;;;;5025930;28;43445;-78
2023/04/24 00:14:14;;;;;;;1.00;1.00;;;18.90;65.60;;;;;;5028802;28;43522;-76
2023/04/24 00:16:42;;;;;;;1.27;1.27;;;18.90;65.60;;;;;;5028172;28;43680;-78
2023/04/24 00:19:11;;;;;;;0.97;0.97;;;18.80;65.50;;;;;;5027532;28;43504;-77
2023/04/24 00:21:40;;;;;;;1.20;1.20;;;18.80;65.60;;;;;;5010445;28;43406;-77
2023/04/24 00:24:09;;;;;;;1.10;1.10;;;18.70;65.70;;;;;;5028168;28;43452;-76
2023/04/24 00:26:39;;;;;;;1.03;1.03;;;18.70;66.00;;;;;;5027426;28;43927;-75
2023/04/24 00:29:07;;;;;;;0.97;0.97;;;18.70;66.10;;;;;;5028024;28;43530;-76
2023/04/24 00:31:35;;;;;;;1.10;1.10;;;18.70;66.00;;;;;;5009800;28;43453;-79
2023/04/24 00:34:03;;;;;;;1.10;1.10;;;18.70;65.90;;;;;;5027688;28;43447;-76
2023/04/24 00:36:32;;;;;;;0.93;0.93;;;18.60;66.00;;;;;;5027620;28;43828;-76
2023/04/24 00:39:00;;;;;;;1.00;1.00;;;18.60;66.10;;;;;;5021234;28;43385;-77
2023/04/24 00:41:28;;;;;;;0.90;0.90;;;18.60;66.30;;;;;;5027835;28;43470;-76
2023/04/24 00:43:58;;;;;;;1.03;1.03;;;18.60;66.10;;;;;;5010318;28;43591;-78
2023/04/24 00:46:26;;;;;;;0.90;0.90;;;18.60;66.00;;;;;;5010031;28;45748;-77
2023/04/24 00:48:54;;;;;;;1.03;1.03;;;18.60;66.10;;;;;;5008790;28;44780;-78
2023/04/24 00:51:24;;;;;;;1.23;1.13;;;18.60;66.10;;;;;;5027610;28;43562;-78
2023/04/24 00:53:52;;;;;;;0.90;0.90;;;18.50;66.20;;;;;;5010694;28;43594;-78
2023/04/24 00:56:20;;;;;;;0.97;0.97;;;18.60;66.40;;;;;;5012383;28;45963;-78
2023/04/24 00:58:48;;;;;;;0.97;0.97;;;18.70;66.20;;;;;;5027469;28;43395;-78
2023/04/24 01:01:18;;;;;;;1.10;1.10;;;18.80;65.90;;;;;;5027807;28;43345;-77
2023/04/24 01:03:46;;;;;;;0.90;0.90;;;18.90;65.70;;;;;;5046186;22;43621;-76
2023/04/24 01:06:14;;;;;;;1.10;1.10;;;18.80;65.40;;;;;;5058056;28;46003;-77
2023/04/24 01:08:42;;;;;;;0.90;0.90;;;18.80;65.60;;;;;;5036272;28;44625;-75
2023/04/24 01:11:10;;;;;;;1.00;1.00;;;18.80;65.70;;;;;;5045898;28;43425;-76
2023/04/24 01:13:39;;;;;;;1.00;1.00;;;18.80;65.60;;;;;;5043725;28;43293;-78
2023/04/24 01:16:07;;;;;;;0.70;0.70;;;18.70;65.50;;;;;;5055698;28;43747;-75
2023/04/24 01:18:36;;;;;;;0.87;0.87;;;18.70;65.60;;;;;;5045360;28;43496;-76
2023/04/24 01:21:05;;;;;;;0.90;0.90;;;18.70;65.80;;;;;;5054713;28;43368;-75
2023/04/24 01:23:34;;;;;;;0.90;0.90;;;18.60;66.10;;;;;;5047628;28;44131;-76
2023/04/24 01:26:02;;;;;;;1.10;1.10;;;18.60;66.00;;;;;;5052525;28;43681;-77
2023/04/24 01:28:30;;;;;;;1.00;1.00;;;18.60;65.80;;;;;;5057682;28;43440;-76
2023/04/24 01:30:59;;;;;;;0.80;0.80;;;18.70;66.00;;;;;;5054721;28;43379;-75
2023/04/24 01:33:27;;;;;;;0.90;0.90;;;18.60;66.00;;;;;;5048628;28;43486;-76
2023/04/24 01:35:55;;;;;;;1.07;1.07;;;18.60;66.20;;;;;;5051122;28;45746;-76
2023/04/24 01:38:23;;;;;;;0.90;0.90;;;18.60;66.30;;;;;;5058823;28;43452;-76
2023/04/24 01:40:52;;;;;;;0.97;0.97;;;18.60;66.20;;;;;;5049350;28;43383;-76
2023/04/24 01:43:23;;;;;;;0.90;0.90;;;18.70;65.80;;;;;;5047363;28;43469;-77
2023/04/24 01:45:51;;;;;;;0.80;0.80;;;18.80;65.70;;;;;;5049718;28;44565;-77
2023/04/24 01:48:19;;;;;;;0.90;0.90;;;18.80;65.50;;;;;;5050098;28;44111;-76
2023/04/24 01:50:47;;;;;;;0.83;0.83;;;18.70;65.50;;;;;;5052398;28;43470;-76
2023/04/24 01:53:15;;;;;;;1.00;1.00;;;18.70;65.80;;;;;;5052909;28;43481;-77
2023/04/24 01:55:43;;;;;;;0.90;0.90;;;18.70;65.70;;;;;;5051331;28;45709;-77
2023/04/24 01:58:14;;;;;;;0.83;0.83;;;18.70;65.50;;;;;;5052217;28;44756;-76
2023/04/24 02:00:42;;;;;;;0.70;0.70;;;18.70;65.70;;;;;;5045822;28;43435;-76
2023/04/24 02:03:10;;;;;;;0.93;0.93;;;18.60;65.80;;;;;;5045472;28;44108;-76
2023/04/24 02:05:39;;;;;;;1.00;1.00;;;18.60;66.10;;;;;;5024328;28;43608;-77
2023/04/24 02:08:07;;;;;;;1.07;1.00;;;18.60;66.10;;;;;;5033120;28;44796;-77
2023/04/24 02:10:38;;;;;;;0.70;0.70;;;18.60;65.90;;;;;;5035240;28;43452;-77
2023/04/24 02:13:06;;;;;;;0.80;0.80;;;18.60;65.90;;;;;;5032342;28;43443;-76
2023/04/24 02:15:35;;;;;;;1.27;0.90;;;18.60;66.00;;;;;;5034198;28;43903;-77
2023/04/24 02:18:04;;;;;;;0.80;0.80;;;18.50;66.10;;;;;;5026265;28;43957;-76
2023/04/24 02:20:33;;;;;;;1.00;1.00;;;18.60;66.20;;;;;;5033280;28;43407;-77
2023/04/24 02:23:01;;;;;;;0.73;0.73;;;18.60;66.00;;;;;;5027559;28;43934;-76
2023/04/24 02:25:29;;;;;;;0.90;0.90;;;18.70;65.80;;;;;;5027568;28;43609;-76
2023/04/24 02:27:57;;;;;;;0.87;0.87;;;18.70;65.60;;;;;;5035701;28;43477;-76
2023/04/24 02:30:26;;;;;;;0.80;0.80;;;18.70;65.50;;;;;;5030284;28;43479;-76
2023/04/24 02:32:56;;;;;;;0.70;0.70;;;18.70;65.90;;;;;;5031749;28;43648;-76
2023/04/24 02:35:24;;;;;;;0.73;0.73;;;18.70;66.60;;;;;;5029068;28;46415;-76
2023/04/24 02:37:52;;;;;;;0.90;0.90;;;18.70;65.70;;;;;;5038669;28;45114;-76
2023/04/24 02:40:20;;;;;;;0.73;0.73;;;18.70;65.70;;;;;;5032717;28;44036;-76
2023/04/24 02:42:48;;;;;;;0.80;0.80;;;18.70;65.80;;;;;;5028670;28;44212;-76
2023/04/24 02:45:17;;;;;;;0.87;0.87;;;18.60;65.90;;;;;;5031143;28;43626;-76
2023/04/24 02:47:45;;;;;;;1.00;1.00;;;18.60;66.20;;;;;;5029854;28;44721;-76
2023/04/24 02:50:15;;;;;;;0.90;0.90;;;18.60;66.10;;;;;;5035485;28;43369;-77
2023/04/24 02:52:43;;;;;;;0.80;0.80;;;18.60;65.90;;;;;;5029939;28;43385;-76
2023/04/24 02:55:11;;;;;;;1.00;1.00;;;18.60;65.90;;;;;;5029304;28;45903;-76
2023/04/24 02:57:39;;;;;;;0.90;0.90;;;18.50;65.80;;;;;;5031542;28;44860;-76
2023/04/24 03:00:09;;;;;;;0.80;0.80;;;18.50;66.10;;;;;;5036230;28;43787;-76
2023/04/24 03:02:36;;;;;;;0.80;0.80;;;18.50;66.20;;;;;;5029604;28;43527;-76
2023/04/24 03:05:06;;;;;;;0.90;0.90;;;18.60;66.10;;;;;;5028089;28;45503;-76
2023/04/24 03:07:35;;;;;;;1.10;1.10;;;18.70;65.80;;;;;;5029912;28;44846;-76
2023/04/24 03:10:03;;;;;;;0.90;0.90;;;18.70;65.40;;;;;;5036795;28;43416;-77
2023/04/24 03:12:31;;;;;;;0.67;0.67;;;18.80;65.40;;;;;;5030876;28;43579;-76
2023/04/24 03:14:59;;;;;;;0.87;0.87;;;18.70;65.50;;;;;;5028782;28;44354;-77
2023/04/24 03:17:28;;;;;;;0.90;0.90;;;18.70;65.50;;;;;;5035866;28;45005;-76
2023/04/24 03:19:56;;;;;;;0.70;0.70;;;18.70;65.40;;;;;;5028790;28;43995;-76
2023/04/24 03:22:24;;;;;;;0.73;0.73;;;18.70;65.40;;;;;;5037674;28;43631;-76
2023/04/24 03:24:56;;;;;;;0.80;0.80;;;18.70;65.60;;;;;;5027432;28;45788;-76
2023/04/24 03:27:24;;;;;;;0.90;0.90;;;18.60;65.60;;;;;;5028128;28;44433;-76
2023/04/24 03:30:00;;;;;;;0.97;0.97;;;18.60;65.90;;;;;;5024703;28;43915;-76
2023/04/24 03:32:39;;;;;;;0.80;0.80;;;18.60;65.90;;;;;;5025805;28;43599;-76
2023/04/24 03:35:10;;;;;;;0.77;0.77;;;18.60;65.70;;;;;;5031121;28;44034;-76
2023/04/24 03:37:39;;;;;;;0.80;0.80;;;18.60;65.80;;;;;;5028257;28;43900;-75
2023/04/24 03:40:33;;;;;;;0.83;0.83;;;18.60;65.90;;;;;;5027605;28;43474;-76
2023/04/24 03:43:02;;;;;;;0.90;0.90;;;18.50;66.10;;;;;;5031121;28;43964;-75
2023/04/24 03:45:30;;;;;;;0.80;0.80;;;18.60;66.10;;;;;;5030653;28;46862;-73
2023/04/24 03:47:58;;;;;;;0.93;0.93;;;18.70;66.00;;;;;;5032709;28;44909;-77
2023/04/24 03:50:28;;;;;;;1.10;1.10;;;18.70;65.60;;;;;;5032279;28;43365;-77
2023/04/24 03:52:57;;;;;;;1.27;1.20;;;18.70;65.40;;;;;;5023835;28;43592;-78
2023/04/24 03:55:36;;;;;;;1.13;1.13;;;18.70;65.20;;;;;;5020912;28;44342;-78
2023/04/24 03:58:04;;;;;;;1.60;1.50;;;18.70;65.60;;;;;;5022625;28;44890;-76
2023/04/24 04:00:33;;;;;;;1.53;1.43;;;18.70;65.60;;;;;;5021685;28;43520;-77
2023/04/24 04:03:20;;;;;;;1.53;1.53;;;18.70;65.40;;;;;;5020555;28;43331;-78
2023/04/24 04:05:49;;;;;;;1.50;1.40;;;18.60;65.50;;;;;;5029564;28;44168;-76
2023/04/24 04:08:17;;;;;;;1.77;1.67;;;18.60;65.60;;;;;;5028988;28;44083;-76
2023/04/24 04:10:47;;;;;;;4.27;2.50;;;18.50;65.80;;;;;;5028432;28;43492;-76
2023/04/24 04:13:15;;;;;;;3.50;2.10;;;18.60;66.00;;;;;;5023633;28;43409;-76
2023/04/24 04:15:43;;;;;;;3.33;2.10;;;18.60;65.90;;;;;;5026269;28;45446;-76
2023/04/24 04:18:13;;;;;;;2.17;2.07;;;18.50;65.70;;;;;;5034430;28;45011;-75
2023/04/24 04:20:41;;;;;;;2.47;2.27;;;18.50;65.80;;;;;;5029318;28;43781;-76
2023/04/24 04:23:12;;;;;;;2.50;2.30;;;18.50;66.00;;;;;;5030841;28;43562;-76
2023/04/24 04:26:07;;;;;;;2.97;2.30;;;18.50;66.40;;;;;;5027931;28;44049;-76
2023/04/24 04:28:51;;;;;;;4.27;2.63;;;18.60;66.30;;;;;;5028262;28;43438;-76
2023/04/24 04:31:19;;;;;;;3.83;2.67;;;18.70;66.00;;;;;;5024529;28;43790;-76
2023/04/24 04:33:49;;;;;;;2.33;2.17;;;18.70;65.70;;;;;;5018523;28;43450;-76
2023/04/24 04:36:17;;;;;;;4.73;2.90;;;18.70;65.40;;;;;;5025826;28;43894;-76
2023/04/24 04:38:50;;;;;;;5.07;2.67;;;18.70;65.80;;;;;;5026140;28;43495;-75
2023/04/24 04:41:40;;;;;;;3.10;2.80;;;18.70;65.80;;;;;;5029179;28;43784;-76
2023/04/24 04:44:10;;;;;;;3.20;2.70;;;18.70;65.70;;;;;;5027784;28;43573;-75
2023/04/24 04:46:38;;;;;;;2.73;2.50;;;18.70;65.50;;;;;;5026794;28;44063;-76
2023/04/24 04:49:28;;;;;;;2.90;2.57;;;18.60;65.70;;;;;;5025221;28;44640;-74
2023/04/24 04:51:57;;;;;;;2.57;2.37;;;18.60;65.90;;;;;;5024332;28;43462;-75
2023/04/24 04:54:26;;;;;;;4.10;2.70;;;18.60;66.40;;;;;;5030198;28;43509;-75
2023/04/24 04:56:58;;;;;;;2.73;2.53;;;18.60;66.30;;;;;;5028542;28;46032;-75
2023/04/24 04:59:26;;;;;;;3.97;2.70;;;18.60;66.20;;;;;;5030880;28;44406;-75
2023/04/24 05:02:01;;;;;;;3.93;2.70;;;18.50;66.10;;;;;;5033065;28;43515;-77
2023/04/24 05:04:29;;;;;;;3.03;2.80;;;18.50;66.30;;;;;;5029699;28;43531;-75
2023/04/24 05:06:58;;;;;;;2.70;2.40;;;18.50;66.60;;;;;;5026100;28;45819;-76
2023/04/24 05:09:29;;;;;;;3.17;2.80;;;18.50;66.60;;;;;;5031636;28;44526;-76
2023/04/24 05:12:04;;;;;;;2.87;2.67;;;18.60;66.40;;;;;;5024668;28;43479;-76
2023/04/24 05:14:36;;;;;;;3.17;2.80;;;18.70;66.10;;;;;;5030053;28;43385;-76
2023/04/24 05:17:04;;;;;;;2.97;2.67;;;18.70;65.80;;;;;;5022220;28;45831;-76
2023/04/24 05:19:35;;;;;;;3.33;2.87;;;18.70;65.70;;;;;;5036109;28;43473;-76
2023/04/24 05:22:06;;;;;;;3.63;2.60;;;18.70;66.10;;;;;;5029048;28;44054;-76
2023/04/24 05:24:38;;;;;;;2.53;2.33;;;18.70;66.00;;;;;;5030882;28;44129;-76
2023/04/24 05:27:23;;;;;;;2.63;2.37;;;18.70;65.80;;;;;;5029459;28;44706;-76
2023/04/24 05:29:51;;;;;;;2.53;2.30;;;18.70;66.10;;;;;;5031352;28;43406;-76
2023/04/24 05:32:19;;;;;;;3.53;2.80;;;18.60;66.10;;;;;;5027802;28;43465;-75
2023/04/24 05:34:53;;;;;;;2.90;2.67;;;18.60;66.40;;;;;;5032574;28;43573;-75
2023/04/24 05:37:22;;;;;;;3.10;2.63;;;18.60;66.50;;;;;;5027693;28;46053;-76
2023/04/24 05:39:50;;;;;;;2.77;2.53;;;18.60;66.20;;;;;;5030405;28;43961;-75
2023/04/24 05:42:19;;;;;;;2.53;2.33;;;18.60;66.30;;;;;;5026192;28;43381;-75
2023/04/24 05:44:49;;;;;;;2.50;2.30;;;18.60;66.50;;;;;;5031019;28;43534;-75
2023/04/24 05:47:21;;;;;;;2.50;2.40;;;18.50;66.50;;;;;;5023018;28;46088;-75
2023/04/24 05:49:51;;;;;;;3.30;2.90;;;18.50;66.70;;;;;;5028778;28;43425;-76
2023/04/24 05:52:18;;;;;;;3.27;2.97;;;18.50;66.40;;;;;;5027019;28;43411;-76
2023/04/24 05:54:49;;;;;;;2.87;2.67;;;18.60;66.50;;;;;;5034049;28;43564;-75
2023/04/24 05:57:24;;;;;;;2.37;2.20;;;18.50;66.40;;;;;;5023521;28;44073;-76
2023/04/24 05:59:56;;;;;;;2.80;2.60;;;18.50;66.50;;;;;;5028456;28;45009;-76
2023/04/24 06:02:27;;;;;;;2.53;2.33;;;18.50;66.70;;;;;;5026873;28;43501;-76
2023/04/24 06:04:55;;;;;;;2.73;2.50;;;18.50;66.70;;;;;;5025731;28;43485;-76
2023/04/24 06:07:26;;;;;;;3.03;2.47;;;18.60;66.60;;;;;;5029136;28;45649;-76
2023/04/24 06:09:54;;;;;;;2.60;2.40;;;18.70;66.30;;;;;;5030893;28;43452;-76
2023/04/24 06:12:23;;;;;;;2.60;2.40;;;18.70;65.90;;;;;;5030180;28;43465;-75
2023/04/24 06:15:07;;;;;;;2.67;2.47;;;18.70;65.80;;;;;;5030688;28;43454;-76
2023/04/24 06:17:54;;;;;;;2.67;2.47;;;18.70;66.20;;;;;;5033033;28;43989;-76
2023/04/24 06:20:22;;;;;;;2.43;2.23;;;18.70;66.10;;;;;;5035973;28;43420;-75
2023/04/24 06:22:50;;;;;;;2.70;2.50;;;18.70;66.00;;;;;;5031068;28;43365;-76
2023/04/24 06:25:18;;;;;;;2.20;2.10;;;18.70;66.10;;;;;;5033476;28;43422;-76
2023/04/24 06:27:46;;;;;;;2.40;2.30;;;18.60;66.20;;;;;;5037238;28;43944;-76
2023/04/24 06:30:16;;;;;;;2.40;2.20;;;18.60;66.30;;;;;;5025576;28;44727;-75
2023/04/24 06:32:44;;;;;;;2.20;2.10;;;18.60;66.60;;;;;;5034761;28;44088;-76
2023/04/24 06:35:12;;;;;;;2.70;2.50;;;18.60;66.30;;;;;;5035123;28;44003;-75
2023/04/24 06:37:40;;;;;;;2.23;2.13;;;18.60;66.40;;;;;;5032658;28;43924;-76
2023/04/24 06:40:09;;;;;;;2.23;2.13;;;18.60;66.50;;;;;;5034323;28;44761;-75
2023/04/24 06:42:37;;;;;;;2.53;2.37;;;18.60;66.60;;;;;;5033209;28;43399;-76
2023/04/24 06:45:09;;;;;;;2.50;2.40;;;18.50;66.70;;;;;;5031121;28;43846;-76
2023/04/24 06:47:38;;;;;;;2.40;2.30;;;18.60;66.90;;;;;;5036575;28;43774;-76
2023/04/24 06:50:07;;;;;;;2.70;2.40;;;18.60;66.60;;;;;;5029284;28;43925;-76
2023/04/24 06:52:35;;;;;;;2.00;1.90;;;18.70;66.20;;;;;;5031710;28;44093;-76
2023/04/24 06:55:04;;;;;;;2.30;2.20;;;18.80;65.90;;;;;;5031319;28;43632;-75
2023/04/24 06:57:32;;;;;;;2.40;2.30;;;18.80;65.80;;;;;;5031226;28;45970;-75
2023/04/24 07:00:00;;;;;;;2.60;2.40;;;18.70;66.00;;;;;;5028577;28;43462;-75
2023/04/24 07:02:28;;;;;;;2.00;1.90;;;18.80;66.10;;;;;;5028678;28;43433;-76
2023/04/24 07:05:01;;;;;;;2.30;2.20;;;18.70;65.80;;;;;;5034735;28;43503;-75
2023/04/24 07:07:29;;;;;;;2.30;2.20;;;18.70;66.70;;;;;;5036510;28;43790;-75
2023/04/24 07:09:58;;;;;;;2.10;2.00;;;18.70;66.20;;;;;;5031314;28;43456;-75
2023/04/24 07:12:26;;;;;;;2.40;2.30;;;18.60;66.20;;;;;;5036454;28;43411;-75
2023/04/24 07:14:54;;;;;;;2.30;2.20;;;18.60;66.60;;;;;;5029975;28;43411;-75
2023/04/24 07:17:22;;;;;;;2.30;2.10;;;18.60;66.30;;;;;;5033086;28;46117;-75
2023/04/24 07:19:50;;;;;;;2.23;2.13;;;18.60;66.30;;;;;;5029660;28;44418;-75
2023/04/24 07:22:20;;;;;;;2.10;2.00;;;18.60;66.40;;;;;;5032680;28;43336;-75
2023/04/24 07:24:48;;;;;;;2.30;2.20;;;18.60;66.50;;;;;;5031819;28;43399;-75
2023/04/24 07:27:15;;;;;;;2.10;2.00;;;18.60;66.70;;;;;;5032304;28;43900;-76
2023/04/24 07:29:43;;;;;;;2.20;2.10;;;18.60;66.80;;;;;;5027385;28;43768;-76
2023/04/24 07:32:12;;;;;;;2.13;2.10;;;18.60;66.50;;;;;;5035531;28;43402;-76
2023/04/24 07:34:40;;;;;;;2.03;1.93;;;18.60;66.60;;;;;;5029802;28;43464;-76
2023/04/24 07:37:08;;;;;;;2.10;2.00;;;18.60;66.60;;;;;;5034307;28;43599;-76
2023/04/24 07:39:37;;;;;;;1.90;1.80;;;18.60;66.70;;;;;;5029399;28;43496;-77
2023/04/24 07:42:05;;;;;;;2.33;2.20;;;18.50;66.80;;;;;;5033557;28;43947;-75
2023/04/24 07:44:33;;;;;;;2.13;2.03;;;18.60;66.90;;;;;;5034026;28;44127;-75
2023/04/24 07:47:01;;;;;;;2.00;1.90;;;18.70;66.60;;;;;;5031424;28;45699;-75
2023/04/24 07:49:29;;;;;;;2.23;2.13;;;18.80;66.20;;;;;;5032802;28;43453;-75
2023/04/24 07:51:57;;;;;;;2.37;2.27;;;18.80;65.90;;;;;;5032317;28;43407;-75
2023/04/24 07:54:25;;;;;;;2.00;1.90;;;18.80;65.80;;;;;;5032580;28;43558;-75
2023/04/24 07:56:54;;;;;;;2.00;1.90;;;18.70;66.10;;;;;;5027225;28;45728;-77
2023/04/24 07:59:25;;;;;;;1.80;1.80;;;18.70;66.10;;;;;;5034391;28;43415;-75
2023/04/24 08:01:53;;;;;;;2.30;2.20;;;18.70;65.90;;;;;;5035732;28;43771;-76
2023/04/24 08:04:22;;;;;;;1.97;1.90;;;18.70;66.00;;;;;;5032602;28;44028;-75
2023/04/24 08:06:50;;;;;;;1.80;1.70;;;18.70;66.20;;;;;;5029593;28;43608;-75
2023/04/24 08:09:18;;;;;;;2.10;2.00;;;18.60;66.30;;;;;;5032296;28;45852;-76
2023/04/24 08:11:46;;;;;;;2.10;2.00;;;18.60;66.60;;;;;;5028167;28;43425;-75
2023/04/24 08:14:17;;;;;;;2.07;1.97;;;18.60;66.40;;;;;;5028357;28;43469;-75
2023/04/24 08:16:45;;;;;;;1.90;1.80;;;18.60;66.50;;;;;;5031047;28;45910;-75
2023/04/24 08:19:15;;;;;;;1.80;1.70;;;18.60;66.50;;;;;;5026181;28;45032;-75
2023/04/24 08:21:43;;;;;;;1.80;1.80;;;18.50;66.50;;;;;;5033038;28;43396;-75
2023/04/24 08:24:11;;;;;;;2.37;2.27;;;18.50;66.70;;;;;;5024613;28;43518;-75
2023/04/24 08:26:39;;;;;;;1.87;1.87;;;18.50;66.80;;;;;;5031871;28;44545;-75
2023/04/24 08:29:07;;;;;;;1.80;1.70;;;18.60;66.60;;;;;;5025403;28;43933;-76
2023/04/24 08:31:37;;;;;;;1.90;1.80;;;18.60;66.70;;;;;;5032246;28;43478;-75
2023/04/24 08:34:05;;;;;;;1.73;1.73;;;18.50;66.70;;;;;;5032849;28;43575;-76
2023/04/24 08:36:33;;;;;;;2.27;2.17;;;18.50;66.70;;;;;;5034430;28;45715;-75
2023/04/24 08:39:14;;;;;;;2.30;2.10;;;18.50;67.00;;;;;;5027561;28;44940;-76
2023/04/24 08:45:56;;;;;;;1.83;1.80;;;18.70;66.60;;;;;;5026602;28;44008;-75
2023/04/24 08:48:25;;;;;;;2.17;2.07;;;18.80;66.00;;;;;;5032122;28;45395;-76
2023/04/24 08:50:59;;;;;;;1.90;1.80;;;18.80;65.70;;;;;;5031221;28;44352;-75
2023/04/24 08:53:27;;;;;;;1.50;1.50;;;18.70;66.00;;;;;;5027321;28;43359;-75
2023/04/24 08:55:56;;;;;;;2.10;2.00;;;18.70;66.10;;;;;;5026794;28;43445;-77
2023/04/24 08:58:25;;;;;;;2.10;2.00;;;18.70;65.90;;;;;;5027280;28;43904;-76
2023/04/24 09:00:55;;;;;;;1.80;1.80;;;18.70;65.90;;;;;;5027017;28;43423;-76
2023/04/24 09:03:24;;;;;;;2.00;1.90;;;18.70;66.10;;;;;;5031528;28;43372;-76
2023/04/24 09:05:54;;;;;;;1.80;1.80;;;18.60;66.20;;;;;;5032599;28;43433;-75
2023/04/24 09:08:22;;;;;;;2.10;2.00;;;18.60;66.60;;;;;;5030875;28;44202;-76
2023/04/24 09:10:50;;;;;;;2.10;2.10;;;18.60;66.60;;;;;;5037135;28;43420;-76
2023/04/24 09:13:18;;;;;;;2.07;2.00;;;18.60;66.40;;;;;;5030562;28;43429;-76
2023/04/24 09:15:46;;;;;;;1.83;1.73;;;18.60;66.50;;;;;;5027064;28;43446;-76
2023/04/24 09:18:14;;;;;;;1.83;1.83;;;18.50;66.40;;;;;;5030877;28;43964;-76
2023/04/24 09:21:02;;;;;;;1.83;1.83;;;18.50;66.70;;;;;;5027263;28;44036;-76
2023/04/24 09:23:31;;;;;;;2.30;2.20;;;18.50;66.70;;;;;;5028298;28;43384;-76
2023/04/24 09:25:59;;;;;;;1.80;1.80;;;18.50;66.60;;;;;;5031974;28;43998;-76
2023/04/24 09:28:30;;;;;;;1.97;1.97;;;18.50;66.50;;;;;;5033230;28;44180;-76
2023/04/24 09:31:08;;;;;;;2.10;2.00;;;18.50;66.70;;;;;;5029249;28;43759;-76
2023/04/24 09:33:36;;;;;;;2.00;1.90;;;18.50;67.40;;;;;;5037893;28;43438;-76
2023/04/24 09:36:05;;;;;;;1.97;1.90;;;18.50;67.00;;;;;;5027321;28;43453;-76
2023/04/24 09:38:35;;;;;;;2.17;2.07;;;18.50;66.80;;;;;;5027784;28;43940;-76
2023/04/24 09:41:03;;;;;;;1.93;1.93;;;18.60;66.70;;;;;;5031681;28;43433;-76
2023/04/24 09:43:31;;;;;;;1.90;1.90;;;18.70;66.20;;;;;;5032232;28;43491;-76
2023/04/24 09:46:00;;;;;;;2.20;2.10;;;18.80;66.10;;;;;;5040258;28;43526;-76
2023/04/24 09:48:32;;;;;;;2.10;2.00;;;18.70;65.80;;;;;;5027165;28;46225;-76
2023/04/24 09:51:01;;;;;;;2.10;2.00;;;18.70;66.20;;;;;;5027904;28;43446;-77
2023/04/24 09:53:31;;;;;;;1.80;1.80;;;18.70;66.20;;;;;;5025287;28;43404;-77
2023/04/24 09:56:03;;;;;;;2.10;2.00;;;18.70;66.00;;;;;;5031804;28;44117;-77
2023/04/24 09:58:31;;;;;;;1.80;1.80;;;18.60;66.00;;;;;;5031341;28;43913;-77
2023/04/24 10:00:59;;;;;;;2.10;2.00;;;18.60;66.20;;;;;;5039812;28;43347;-76
2023/04/24 10:03:28;;;;;;;1.93;1.93;;;18.50;66.40;;;;;;5030073;28;44175;-76
2023/04/24 10:05:59;;;;;;;2.00;1.90;;;18.60;66.80;;;;;;5031516;28;43424;-75
2023/04/24 10:08:27;;;;;;;2.03;1.93;;;18.50;66.40;;;;;;5034528;28;46099;-74
2023/04/24 10:10:56;;;;;;;1.90;1.90;;;18.50;66.40;;;;;;5031338;28;43535;-76
2023/04/24 10:13:24;;;;;;;1.90;1.90;;;18.50;66.60;;;;;;5030677;28;43360;-74
2023/04/24 10:15:52;;;;;;;1.70;1.70;;;18.50;66.70;;;;;;5034344;28;43532;-74
2023/04/24 10:18:20;;;;;;;2.10;2.00;;;18.50;67.00;;;;;;5033300;28;45921;-75
2023/04/24 10:20:48;;;;;;;2.10;2.00;;;18.50;66.70;;;;;;5038406;28;43975;-76
2023/04/24 10:23:19;;;;;;;1.70;1.70;;;18.50;66.80;;;;;;5036200;28;43406;-75
2023/04/24 10:25:47;;;;;;;1.87;1.80;;;18.50;66.80;;;;;;5039607;28;43939;-76
2023/04/24 10:28:16;;;;;;;2.17;2.07;;;18.50;66.70;;;;;;5030452;28;46014;-75
2023/04/24 10:30:44;;;;;;;2.03;1.93;;;18.40;66.80;;;;;;5035518;28;43570;-75
2023/04/24 10:33:13;;;;;;;1.73;1.73;;;18.40;67.00;;;;;;5036561;28;44142;-75
2023/04/24 10:35:45;;;;;;;1.80;1.80;;;18.50;66.90;;;;;;5035855;28;43419;-75
2023/04/24 10:38:13;;;;;;;1.90;1.90;;;18.60;66.60;;;;;;5031630;28;43952;-75
2023/04/24 10:40:43;;;;;;;1.80;1.80;;;18.70;66.30;;;;;;5030040;28;43411;-77
2023/04/24 10:43:13;;;;;;;1.83;1.83;;;18.70;66.10;;;;;;5033302;28;43388;-74
2023/04/24 10:45:42;;;;;;;2.00;2.00;;;18.70;66.10;;;;;;5037316;28;43407;-75
2023/04/24 10:48:13;;;;;;;2.00;1.90;;;18.70;66.40;;;;;;5034175;28;43930;-76
2023/04/24 10:50:45;;;;;;;1.90;1.80;;;18.70;66.40;;;;;;5033285;28;43415;-75
2023/04/24 10:53:14;;;;;;;1.60;1.60;;;18.60;66.10;;;;;;5036753;28;43502;-77
2023/04/24 10:55:44;;;;;;;1.80;1.80;;;18.60;66.20;;;;;;5034078;28;44012;-77
2023/04/24 10:58:12;;;;;;;1.70;1.70;;;18.60;66.40;;;;;;5030950;28;43961;-75
2023/04/24 11:00:41;;;;;;;2.07;1.97;;;18.50;66.70;;;;;;5032998;28;44352;-76
2023/04/24 11:03:24;;;;;;;1.90;1.90;;;18.50;66.70;;;;;;5033306;28;43453;-76
2023/04/24 11:05:54;;;;;;;1.90;1.90;;;18.50;66.70;;;;;;5024397;28;43452;-76
2023/04/24 11:08:26;;;;;;;1.80;1.80;;;18.50;66.70;;;;;;5033769;28;43918;-76
2023/04/24 11:10:59;;;;;;;2.03;1.93;;;18.50;66.70;;;;;;5028273;28;43392;-76
2023/04/24 11:13:49;;;;;;;2.00;2.00;;;18.40;66.70;;;;;;5035596;28;43949;-77
2023/04/24 11:16:21;;;;;;;1.77;1.77;;;18.40;67.00;;;;;;5031437;28;43826;-75
2023/04/24 11:18:54;;;;;;;1.90;1.90;;;18.40;66.70;;;;;;5034221;28;45979;-76
2023/04/24 11:21:23;;;;;;;1.60;1.60;;;18.40;66.70;;;;;;5033900;28;45087;-76
2023/04/24 11:23:51;;;;;;;1.87;1.87;;;18.40;66.70;;;;;;5034775;28;44110;-76
2023/04/24 11:26:24;;;;;;;2.00;2.00;;;18.40;66.90;;;;;;5025827;28;43532;-76
2023/04/24 11:28:52;;;;;;;2.00;1.90;;;18.40;67.10;;;;;;5028730;28;46049;-76
2023/04/24 11:31:37;;;;;;;1.60;1.60;;;18.40;67.10;;;;;;5039199;28;43328;-76
2023/04/24 11:34:10;;;;;;;1.60;1.60;;;18.60;66.90;;;;;;5035782;28;43525;-76
2023/04/24 11:36:38;;;;;;;1.70;1.70;;;18.60;66.40;;;;;;5030175;28;43519;-76
2023/04/24 11:39:06;;;;;;;1.77;1.77;;;18.70;66.20;;;;;;5036586;28;44059;-76
2023/04/24 11:41:34;;;;;;;1.70;1.70;;;18.70;66.10;;;;;;5031237;28;45200;-76
2023/04/24 11:44:04;;;;;;;1.87;1.87;;;18.70;66.40;;;;;;5033425;28;43971;-76
2023/04/24 11:46:32;;;;;;;1.90;1.90;;;18.70;66.40;;;;;;5029782;28;43349;-76
2023/04/24 11:49:01;;;;;;;1.57;1.57;;;18.60;66.20;;;;;;5028955;28;44088;-76
2023/04/24 11:51:29;;;;;;;1.70;1.70;;;18.60;66.20;;;;;;5032317;28;43886;-76
2023/04/24 11:54:10;;;;;;;1.83;1.83;;;18.60;66.40;;;;;;5031181;28;43545;-77
2023/04/24 11:56:38;;;;;;;1.70;1.70;;;18.60;66.60;;;;;;5033953;28;43455;-75
2023/04/24 11:59:06;;;;;;;1.83;1.80;;;18.50;66.70;;;;;;5033022;28;43620;-76
2023/04/24 12:01:44;;;;;;;1.70;1.70;;;18.50;66.80;;;;;;5030771;28;43920;-75
2023/04/24 12:04:13;;;;;;;1.60;1.60;;;18.50;66.70;;;;;;5019352;28;43472;-75
2023/04/24 12:06:41;;;;;;;1.50;1.50;;;18.50;66.70;;;;;;5029551;28;43479;-75
2023/04/24 12:09:12;;;;;;;1.60;1.60;;;18.50;66.70;;;;;;5032478;28;43957;-76
2023/04/24 12:11:53;;;;;;;1.60;1.60;;;18.40;66.90;;;;;;5026806;28;45061;-77
2023/04/24 12:14:21;;;;;;;1.63;1.63;;;18.40;67.00;;;;;;5036194;28;43487;-75
2023/04/24 12:16:49;;;;;;;1.87;1.87;;;18.40;66.70;;;;;;5035758;28;43439;-74
2023/04/24 12:19:21;;;;;;;1.60;1.60;;;18.40;66.70;;;;;;5034322;28;43943;-76
2023/04/24 12:22:01;;;;;;;1.83;1.80;;;18.40;66.70;;;;;;5028490;28;43949;-75
2023/04/24 12:24:29;;;;;;;1.93;1.93;;;18.40;66.70;;;;;;5018500;28;43392;-76
2023/04/24 12:26:57;;;;;;;1.70;1.70;;;18.40;66.70;;;;;;5028721;28;43469;-75
2023/04/24 12:29:25;;;;;;;1.60;1.60;;;18.40;66.80;;;;;;5023626;28;46021;-77
2023/04/24 12:31:53;;;;;;;1.67;1.67;;;18.50;66.70;;;;;;5019568;28;44147;-75
2023/04/24 12:34:24;;;;;;;1.70;1.70;;;18.60;66.40;;;;;;5024912;28;43460;-75
2023/04/24 12:36:54;;;;;;;1.77;1.67;;;18.60;66.10;;;;;;5022285;28;43389;-75
2023/04/24 12:39:26;;;;;;;1.87;1.87;;;18.70;66.10;;;;;;5022486;28;46126;-75
2023/04/24 12:41:57;;;;;;;1.80;1.80;;;18.60;66.40;;;;;;5024257;28;44071;-75
2023/04/24 12:44:34;;;;;;;1.70;1.70;;;18.60;66.30;;;;;;5019975;28;43821;-77
2023/04/24 12:47:02;;;;;;;1.67;1.67;;;18.60;66.30;;;;;;5018177;28;43881;-77
2023/04/24 12:49:31;;;;;;;2.07;1.97;;;18.50;66.20;;;;;;5023432;28;44782;-77
2023/04/24 12:51:59;;;;;;;2.10;2.03;;;18.50;66.40;;;;;;5023780;28;43476;-76
2023/04/24 12:54:27;;;;;;;1.80;1.80;;;18.50;66.60;;;;;;5025456;28;43472;-77
2023/04/24 12:56:56;;;;;;;1.70;1.70;;;18.40;66.70;;;;;;5022335;28;43480;-74
2023/04/24 12:59:24;;;;;;;2.10;2.10;;;18.50;66.70;;;;;;5019854;28;43757;-76
2023/04/24 13:01:52;;;;;;;1.60;1.60;;;18.40;67.40;;;;;;5028316;28;44018;-75
2023/04/24 13:04:20;;;;;;;1.50;1.50;;;18.40;66.70;;;;;;5024177;28;44027;-75
2023/04/24 13:06:49;;;;;;;1.77;1.77;;;18.40;66.80;;;;;;5024800;28;43465;-76